createdAt,value
2019-02-14T00:00:33.917Z,47.10
2019-02-14T00:03:21.715Z,49.53
2019-02-14T00:06:06.678Z,48.90
2019-02-14T00:09:00.813Z,56.33
2019-02-14T00:11:45.757Z,49.13
2019-02-14T00:14:30.594Z,44.67
2019-02-14T00:17:15.481Z,60.17
2019-02-14T00:20:06.736Z,51.30
2019-02-14T00:22:51.285Z,51.83
2019-02-14T00:25:36.105Z,55.40
2019-02-14T00:28:20.834Z,52.30
2019-02-14T00:31:05.644Z,51.17
2019-02-14T00:33:50.456Z,51.73
2019-02-14T00:36:35.101Z,56.87
2019-02-14T00:39:20.135Z,53.50
2019-02-14T00:42:04.953Z,57.63
2019-02-14T00:44:49.937Z,54.03
2019-02-14T00:47:34.817Z,52.13
2019-02-14T00:50:25.718Z,56.83
2019-02-14T00:53:10.595Z,52.20
2019-02-14T00:55:55.397Z,53.70
2019-02-14T00:58:43.245Z,46.33
2019-02-14T01:01:28.160Z,44.70
2019-02-14T01:04:12.984Z,50.33
2019-02-14T01:06:57.982Z,53.33
2019-02-14T01:09:42.847Z,46.80
2019-02-14T01:12:30.839Z,52.20
2019-02-14T01:15:17.669Z,49.67
2019-02-14T01:18:02.530Z,51.73
2019-02-14T01:20:47.571Z,62.23
2019-02-14T01:23:32.219Z,46.80
2019-02-14T01:26:20.038Z,50.63
2019-02-14T01:29:04.910Z,51.40
2019-02-14T01:31:55.967Z,53.80
2019-02-14T01:34:41.008Z,58.30
2019-02-14T01:37:25.970Z,56.47
2019-02-14T01:40:10.912Z,50.40
2019-02-14T01:42:58.668Z,52.97
2019-02-14T01:45:43.623Z,61.13
2019-02-14T01:48:31.462Z,53.67
2019-02-14T01:51:16.335Z,47.37
2019-02-14T01:54:00.963Z,55.20
2019-02-14T01:56:45.688Z,57.10
2019-02-14T01:59:33.851Z,59.37
2019-02-14T02:02:21.623Z,53.73
2019-02-14T02:05:06.444Z,52.10
2019-02-14T02:07:54.513Z,66.10
2019-02-14T02:10:39.333Z,62.27
2019-02-14T02:13:24.286Z,63.10
2019-02-14T02:16:12.233Z,57.97
2019-02-14T02:18:56.922Z,58.60
2019-02-14T02:21:42.038Z,55.53
2019-02-14T02:24:26.726Z,63.27
2019-02-14T02:27:27.413Z,60.03
2019-02-14T02:30:13.787Z,64.47
2019-02-14T02:32:58.815Z,63.90
2019-02-14T02:35:43.874Z,69.87
2019-02-14T02:38:41.181Z,73.97
2019-02-14T02:41:29.146Z,65.97
2019-02-14T02:44:13.976Z,70.93
2019-02-14T02:46:58.966Z,70.43
2019-02-14T02:49:43.865Z,64.10
2019-02-14T02:52:28.789Z,66.27
2019-02-14T02:55:13.590Z,69.13
2019-02-14T02:58:01.478Z,70.13
2019-02-14T03:00:46.733Z,74.50
2019-02-14T03:03:31.319Z,69.57
2019-02-14T03:06:16.172Z,64.33
2019-02-14T03:09:00.981Z,68.50
2019-02-14T03:11:45.977Z,71.93
2019-02-14T03:14:30.874Z,87.27
2019-02-14T03:17:15.716Z,75.57
2019-02-14T03:20:00.646Z,73.80
2019-02-14T03:22:45.457Z,72.30
2019-02-14T03:25:30.336Z,72.37
2019-02-14T03:28:15.180Z,74.17
2019-02-14T03:31:03.160Z,74.00
2019-02-14T03:33:48.240Z,65.93
2019-02-14T03:36:32.985Z,72.60
2019-02-14T03:39:17.889Z,72.70
2019-02-14T03:42:02.785Z,90.13
2019-02-14T03:45:06.866Z,83.43
2019-02-14T03:47:52.222Z,79.30
2019-02-14T03:50:37.012Z,74.70
2019-02-14T03:53:21.999Z,74.27
2019-02-14T03:56:06.800Z,75.47
2019-02-14T03:58:51.720Z,75.63
2019-02-14T04:01:36.541Z,67.00
2019-02-14T04:04:24.193Z,75.17
2019-02-14T04:07:09.613Z,69.57
2019-02-14T04:09:54.410Z,68.77
2019-02-14T04:12:39.432Z,80.87
2019-02-14T04:15:33.600Z,73.77
2019-02-14T04:18:21.667Z,72.83
2019-02-14T04:21:06.473Z,78.60
2019-02-14T04:23:51.382Z,69.77
2019-02-14T04:26:36.150Z,77.30
2019-02-14T04:29:23.952Z,74.07
2019-02-14T04:32:08.915Z,72.53
2019-02-14T04:34:56.688Z,66.00
2019-02-14T04:37:41.413Z,66.40
2019-02-14T04:40:33.693Z,69.70
2019-02-14T04:43:16.323Z,72.43
2019-02-14T04:46:01.276Z,67.43
2019-02-14T04:48:49.328Z,66.97
2019-02-14T04:51:34.341Z,71.87
2019-02-14T04:54:19.104Z,74.43
2019-02-14T04:57:07.100Z,65.70
2019-02-14T04:59:51.912Z,66.37
2019-02-14T05:02:37.003Z,68.67
2019-02-14T05:05:24.823Z,62.60
2019-02-14T05:08:09.674Z,62.83
2019-02-14T05:10:57.668Z,63.47
2019-02-14T05:13:42.490Z,70.53
2019-02-14T05:16:42.680Z,68.07
2019-02-14T05:19:30.687Z,71.20
2019-02-14T05:22:18.629Z,61.37
2019-02-14T05:25:05.589Z,59.93
2019-02-14T05:27:50.314Z,62.10
2019-02-14T05:30:35.125Z,63.13
2019-02-14T05:33:20.110Z,58.90
2019-02-14T05:36:17.313Z,75.33
2019-02-14T05:39:11.667Z,59.90
2019-02-14T05:42:05.789Z,57.60
2019-02-14T05:44:53.628Z,62.30
2019-02-14T05:47:38.554Z,62.03
2019-02-14T05:50:23.405Z,68.73
2019-02-14T05:53:08.466Z,62.67
2019-02-14T05:55:53.363Z,60.87
2019-02-14T05:58:38.332Z,64.57
2019-02-14T06:01:23.821Z,60.47
2019-02-14T06:04:11.512Z,58.10
2019-02-14T06:07:01.190Z,62.90
2019-02-14T06:09:46.132Z,60.80
2019-02-14T06:12:30.958Z,54.60
2019-02-14T06:15:18.720Z,68.33
2019-02-14T06:18:03.509Z,70.87
2019-02-14T06:20:51.131Z,57.90
2019-02-14T06:23:36.195Z,63.20
2019-02-14T06:26:30.360Z,59.20
2019-02-14T06:29:17.979Z,60.13
2019-02-14T06:32:02.823Z,74.37
2019-02-14T06:34:47.695Z,83.50
2019-02-14T06:37:32.499Z,64.73
2019-02-14T06:40:32.789Z,59.23
2019-02-14T06:43:20.626Z,59.60
2019-02-14T06:46:05.553Z,61.90
2019-02-14T06:48:50.468Z,59.00
2019-02-14T06:51:35.508Z,58.40
2019-02-14T06:54:20.404Z,56.23
2019-02-14T06:57:05.110Z,49.87
2019-02-14T06:59:50.021Z,51.27
2019-02-14T07:02:34.824Z,50.30
2019-02-14T07:05:35.153Z,55.37
2019-02-14T07:08:20.004Z,59.17
2019-02-14T07:11:07.889Z,51.87
2019-02-14T07:13:52.759Z,44.30
2019-02-14T07:16:46.957Z,48.50
2019-02-14T07:19:31.818Z,53.63
2019-02-14T07:22:16.848Z,51.00
2019-02-14T07:25:07.353Z,51.67
2019-02-14T07:27:51.976Z,42.60
2019-02-14T07:30:36.917Z,52.00
2019-02-14T07:33:21.921Z,45.93
2019-02-14T07:36:19.046Z,49.73
2019-02-14T07:39:13.368Z,39.97
2019-02-14T07:41:58.380Z,41.23
2019-02-14T07:45:02.251Z,43.00
2019-02-14T07:47:46.973Z,49.13
2019-02-14T07:50:51.076Z,36.93
2019-02-14T07:53:38.895Z,47.03
2019-02-14T07:56:23.894Z,41.43
2019-02-14T07:59:08.509Z,37.83
2019-02-14T08:01:53.540Z,49.73
2019-02-14T08:04:38.666Z,45.27
2019-02-14T08:07:23.458Z,46.27
2019-02-14T08:10:23.805Z,37.77
2019-02-14T08:13:20.972Z,44.33
2019-02-14T08:16:12.093Z,39.17
2019-02-14T08:19:09.307Z,45.53
2019-02-14T08:21:57.233Z,52.73
2019-02-14T08:24:42.166Z,43.87
2019-02-14T08:27:26.976Z,45.70
2019-02-14T08:30:30.356Z,43.47
2019-02-14T08:33:33.734Z,40.10
2019-02-14T08:36:28.079Z,49.57
2019-02-14T08:39:12.894Z,34.47
2019-02-14T08:42:00.862Z,36.10
2019-02-14T08:44:48.896Z,34.90
2019-02-14T08:47:33.937Z,35.50
2019-02-14T08:50:18.812Z,35.73
2019-02-14T08:53:15.953Z,36.27
2019-02-14T08:56:04.015Z,34.10
2019-02-14T08:58:39.326Z,32.30
2019-02-14T09:01:11.921Z,41.33
2019-02-14T09:03:38.153Z,35.37
2019-02-14T09:06:04.308Z,30.63
2019-02-14T09:08:30.578Z,29.53
2019-02-14T09:10:56.747Z,34.70
2019-02-14T09:13:22.984Z,25.23
2019-02-14T09:15:49.215Z,29.27
2019-02-14T09:18:34.054Z,27.13
2019-02-14T09:21:18.991Z,29.73
2019-02-14T09:24:22.579Z,27.23
2019-02-14T09:27:07.596Z,33.33
2019-02-14T09:30:12.414Z,28.60
2019-02-14T09:33:03.228Z,25.77
2019-02-14T09:35:47.888Z,24.03
2019-02-14T09:38:35.488Z,26.93
2019-02-14T09:41:20.225Z,19.93
2019-02-14T09:44:05.331Z,22.27
2019-02-14T09:46:50.135Z,19.80
2019-02-14T09:49:38.255Z,17.43
2019-02-14T09:52:32.585Z,17.77
2019-02-14T09:55:23.669Z,17.67
2019-02-14T09:58:14.805Z,18.90
2019-02-14T10:01:02.841Z,19.30
2019-02-14T10:03:50.569Z,21.93
2019-02-14T10:06:36.973Z,18.53
2019-02-14T10:09:22.136Z,17.40
2019-02-14T10:12:07.144Z,17.17
2019-02-14T10:14:51.905Z,16.60
2019-02-14T10:17:36.705Z,14.53
2019-02-14T10:20:36.941Z,14.37
2019-02-14T10:23:34.021Z,19.70
2019-02-14T10:26:34.663Z,13.90
2019-02-14T10:29:19.328Z,14.27
2019-02-14T10:32:07.176Z,17.93
2019-02-14T10:34:51.924Z,12.97
2019-02-14T10:37:49.032Z,16.43
2019-02-14T10:40:37.155Z,14.03
2019-02-14T10:43:24.900Z,12.17
2019-02-14T10:46:09.609Z,11.50
2019-02-14T10:48:54.463Z,12.57
2019-02-14T10:51:39.380Z,13.23
2019-02-14T10:54:33.656Z,12.70
2019-02-14T10:57:33.983Z,19.20
2019-02-14T11:00:24.613Z,13.37
2019-02-14T11:03:09.029Z,12.93
2019-02-14T11:05:56.851Z,10.30
2019-02-14T11:08:41.280Z,13.80
2019-02-14T11:11:25.794Z,11.50
2019-02-14T11:14:29.580Z,14.07
2019-02-14T11:17:14.528Z,9.10
2019-02-14T11:19:58.959Z,10.20
2019-02-14T11:22:43.645Z,19.90
2019-02-14T11:25:36.771Z,12.43
2019-02-14T12:14:34.784Z,8.70
2019-02-14T12:17:38.545Z,11.07
2019-02-14T12:20:23.222Z,17.27
2019-02-14T12:23:17.496Z,10.00
2019-02-14T12:26:14.625Z,9.77
2019-02-14T12:28:59.424Z,7.43
2019-02-14T12:31:53.572Z,8.57
2019-02-14T12:34:56.897Z,28.30
2019-02-14T12:37:54.133Z,8.97
2019-02-14T12:40:47.997Z,48.47
2019-02-14T12:43:32.960Z,10.60
2019-02-14T12:46:37.631Z,8.20
2019-02-14T12:49:41.512Z,9.93
2019-02-14T12:52:41.783Z,7.50
2019-02-14T12:55:35.905Z,8.37
2019-02-14T12:58:21.079Z,7.37
2019-02-14T13:01:05.901Z,12.03
2019-02-14T13:04:09.893Z,14.73
2019-02-14T13:06:54.681Z,6.70
2019-02-14T13:09:57.980Z,9.10
2019-02-14T13:12:43.010Z,6.93
2019-02-14T13:15:43.240Z,7.43
2019-02-14T13:18:43.419Z,8.60
2019-02-14T13:21:47.377Z,12.93
2019-02-14T13:24:32.332Z,7.90
2019-02-14T13:27:17.261Z,10.07
2019-02-14T13:30:24.412Z,7.73
2019-02-14T13:33:12.302Z,7.50
2019-02-14T13:35:57.155Z,6.03
2019-02-14T13:38:48.395Z,5.00
2019-02-14T13:41:39.458Z,7.23
2019-02-14T13:44:27.565Z,7.80
2019-02-14T13:47:12.491Z,6.07
2019-02-14T13:49:57.436Z,9.33
2019-02-14T13:52:42.376Z,7.05
2019-02-14T13:55:45.665Z,10.03
2019-02-14T13:58:42.891Z,6.67
2019-02-14T14:01:27.772Z,8.48
2019-02-14T14:04:22.728Z,7.15
2019-02-14T14:07:26.550Z,6.35
2019-02-14T14:10:11.408Z,8.33
2019-02-14T14:12:59.398Z,8.90
2019-02-14T14:15:44.432Z,8.63
2019-02-14T14:18:29.147Z,7.45
2019-02-14T14:21:13.948Z,8.15
2019-02-14T14:23:58.768Z,12.55
2019-02-14T14:26:46.668Z,8.78
2019-02-14T14:29:31.687Z,9.93
2019-02-14T14:32:29.007Z,6.90
2019-02-14T14:35:17.028Z,7.42
2019-02-14T14:38:14.462Z,8.35
2019-02-14T14:40:59.272Z,8.73
2019-02-14T14:43:46.046Z,8.83
2019-02-14T14:46:46.453Z,7.83
2019-02-14T14:49:31.237Z,10.38
2019-02-14T14:52:19.121Z,11.43
2019-02-14T14:55:04.628Z,8.97
2019-02-14T14:57:49.436Z,8.80
2019-02-14T15:00:34.392Z,13.23
2019-02-14T15:03:34.508Z,6.87
2019-02-14T15:06:19.367Z,9.23
2019-02-14T15:09:04.892Z,9.03
2019-02-14T15:12:08.151Z,9.27
2019-02-14T15:15:11.728Z,8.03
2019-02-14T15:17:56.536Z,10.47
2019-02-14T15:21:00.316Z,10.17
2019-02-14T15:23:45.115Z,13.50
2019-02-14T15:26:39.244Z,7.17
2019-02-14T15:29:36.350Z,9.40
2019-02-14T15:32:39.992Z,8.40
2019-02-14T15:35:24.928Z,6.13
2019-02-14T15:38:11.878Z,5.67
2019-02-14T15:41:15.755Z,6.27
2019-02-14T15:44:03.912Z,10.37
2019-02-14T15:46:48.576Z,10.20
2019-02-14T15:49:36.509Z,9.80
2019-02-14T15:52:21.491Z,8.70
2019-02-14T15:55:06.626Z,8.73
2019-02-14T15:57:51.175Z,14.47
2019-02-14T16:00:39.372Z,6.07
2019-02-14T16:03:26.905Z,10.07
2019-02-14T16:06:28.382Z,7.37
2019-02-14T16:09:29.408Z,7.13
2019-02-14T16:12:26.610Z,6.33
2019-02-14T16:15:22.456Z,7.53
2019-02-14T16:18:10.370Z,9.27
2019-02-14T16:20:55.128Z,11.93
2019-02-14T16:23:58.413Z,12.27
2019-02-14T16:26:59.575Z,12.50
2019-02-14T16:29:51.925Z,12.63
2019-02-14T16:32:36.611Z,9.73
2019-02-14T16:35:24.499Z,7.97
2019-02-14T16:38:11.769Z,7.70
2019-02-14T16:40:56.477Z,10.63
2019-02-14T16:43:56.991Z,9.67
2019-02-14T16:46:44.963Z,9.23
2019-02-14T16:49:29.713Z,6.83
2019-02-14T16:52:14.892Z,7.03
2019-02-14T16:55:09.073Z,7.00
2019-02-14T16:58:00.379Z,7.73
2019-02-14T17:00:45.283Z,7.80
2019-02-14T17:03:29.971Z,10.17
2019-02-14T17:06:33.922Z,7.97
2019-02-14T17:09:21.715Z,12.17
2019-02-14T17:12:06.544Z,7.93
2019-02-14T17:15:06.084Z,7.67
2019-02-14T17:17:54.459Z,7.53
2019-02-14T17:20:58.258Z,9.23
2019-02-14T17:23:43.165Z,6.67
2019-02-14T17:26:27.934Z,9.33
2019-02-14T17:29:31.419Z,10.17
2019-02-14T17:32:16.519Z,8.13
2019-02-14T17:35:01.452Z,7.73
2019-02-14T17:37:46.354Z,9.27
2019-02-14T17:40:49.964Z,8.80
2019-02-14T17:43:34.905Z,6.83
2019-02-14T17:46:38.478Z,10.03
2019-02-14T17:49:23.290Z,9.57
2019-02-14T17:52:08.979Z,13.63
2019-02-14T17:54:56.688Z,6.97
2019-02-14T17:57:41.450Z,11.50
2019-02-14T18:00:35.588Z,9.17
2019-02-14T18:03:20.432Z,10.73
2019-02-14T18:06:24.422Z,15.30
2019-02-14T18:09:12.237Z,17.53
2019-02-14T18:11:57.104Z,11.63
2019-02-14T18:15:01.115Z,10.00
2019-02-14T18:17:48.997Z,12.90
2019-02-14T18:20:33.832Z,10.97
2019-02-14T18:23:18.789Z,15.67
2019-02-14T18:26:22.536Z,13.47
2019-02-14T18:29:07.477Z,12.30
2019-02-14T18:31:52.243Z,13.03
2019-02-14T18:34:37.112Z,17.97
2019-02-14T18:37:28.159Z,15.90
2019-02-14T18:40:32.068Z,14.43
2019-02-14T18:43:19.940Z,14.07
2019-02-14T18:46:04.718Z,15.63
2019-02-14T18:49:08.625Z,20.03
2019-02-14T18:51:53.483Z,18.33
2019-02-14T18:54:38.517Z,18.13
2019-02-14T18:57:32.817Z,19.53
2019-02-14T19:00:18.883Z,20.07
2019-02-14T19:03:03.629Z,22.70
2019-02-14T19:05:51.508Z,25.50
2019-02-14T19:08:36.477Z,24.00
2019-02-14T19:11:21.247Z,23.40
2019-02-14T19:14:25.232Z,27.57
2019-02-14T19:17:10.068Z,26.77
2019-02-14T19:19:54.808Z,23.30
2019-02-14T19:22:42.827Z,23.87
2019-02-14T19:25:47.541Z,21.97
2019-02-14T19:28:32.533Z,20.43
2019-02-14T19:31:29.791Z,24.10
2019-02-14T19:34:16.001Z,26.87
2019-02-14T19:37:01.240Z,19.87
2019-02-14T19:39:46.337Z,20.70
2019-02-14T19:42:37.641Z,21.63
2019-02-14T19:45:22.631Z,21.03
2019-02-14T19:48:07.389Z,25.10
2019-02-14T19:50:52.581Z,19.70
2019-02-14T19:53:37.289Z,23.60
2019-02-14T19:56:25.180Z,19.73
2019-02-14T19:59:10.816Z,23.53
2019-02-14T20:02:14.622Z,20.63
2019-02-14T20:05:18.422Z,19.27
2019-02-14T20:08:03.523Z,17.77
2019-02-14T20:10:48.275Z,22.90
2019-02-14T20:13:36.240Z,23.33
2019-02-14T20:16:21.243Z,19.23
2019-02-14T20:19:06.312Z,20.73
2019-02-14T20:22:10.665Z,18.87
2019-02-14T20:24:55.455Z,19.20
2019-02-14T20:27:43.285Z,21.13
2019-02-14T20:30:28.276Z,23.33
2019-02-14T20:33:13.039Z,17.97
2019-02-14T20:36:16.880Z,20.33
2019-02-14T20:39:01.925Z,22.90
2019-02-14T20:41:46.782Z,20.33
2019-02-14T20:44:47.060Z,17.23
2019-02-14T20:47:41.424Z,15.73
2019-02-14T20:50:32.765Z,16.37
2019-02-14T20:53:17.690Z,15.10
2019-02-14T20:56:05.733Z,17.60
2019-02-14T20:59:06.440Z,17.50
2019-02-14T21:01:51.393Z,19.03
2019-02-14T21:04:39.572Z,16.47
2019-02-14T21:07:24.698Z,22.80
2019-02-14T21:10:24.834Z,18.23
2019-02-14T21:13:25.274Z,17.27
2019-02-14T21:16:10.752Z,22.33
2019-02-14T21:18:55.629Z,18.33
2019-02-14T21:21:40.287Z,19.50
2019-02-14T21:24:25.166Z,18.23
2019-02-14T21:27:10.133Z,22.57
2019-02-14T21:30:12.254Z,25.60
2019-02-14T21:33:15.728Z,20.33
2019-02-14T21:36:03.523Z,18.17
2019-02-14T21:38:48.463Z,20.13
2019-02-14T21:41:33.712Z,21.27
2019-02-14T21:44:18.820Z,21.77
2019-02-14T21:47:03.740Z,27.53
2019-02-14T21:49:51.750Z,30.37
2019-02-14T21:52:36.478Z,18.57
2019-02-14T21:55:21.444Z,22.40
2019-02-14T21:58:18.810Z,23.73
2019-02-14T22:01:04.157Z,22.40
2019-02-14T22:03:54.427Z,23.83
2019-02-14T22:06:42.145Z,23.17
2019-02-14T22:09:27.059Z,21.07
2019-02-14T22:12:38.407Z,18.90
2019-02-14T22:15:20.476Z,20.47
2019-02-14T22:18:08.217Z,20.60
2019-02-14T22:20:53.252Z,19.83
2019-02-14T22:23:37.954Z,26.60
2019-02-14T22:26:22.694Z,21.23
2019-02-14T22:29:13.815Z,20.20
2019-02-14T22:32:01.812Z,22.67
2019-02-14T22:34:46.605Z,20.27
2019-02-14T22:37:31.647Z,25.73
2019-02-14T22:40:19.552Z,22.63
2019-02-14T22:43:04.396Z,18.13
2019-02-14T22:45:49.350Z,17.73
2019-02-14T22:48:34.077Z,23.27
2019-02-14T22:51:19.148Z,18.97
2019-02-14T22:54:03.917Z,21.77
2019-02-14T22:57:07.493Z,21.23
2019-02-14T22:59:52.401Z,22.00
2019-02-14T23:02:40.279Z,20.73
2019-02-14T23:05:40.582Z,18.40
2019-02-14T23:08:40.785Z,23.13
2019-02-14T23:11:28.584Z,21.67
2019-02-14T23:14:13.709Z,18.23
2019-02-14T23:16:58.442Z,20.10
2019-02-14T23:19:43.342Z,17.97
2019-02-14T23:22:40.546Z,23.30
2019-02-14T23:25:28.652Z,16.30
2019-02-14T23:28:16.642Z,16.93
2019-02-14T23:31:01.476Z,20.37
2019-02-14T23:33:46.460Z,23.60
2019-02-14T23:36:34.409Z,19.37
2019-02-14T23:39:19.361Z,23.03
2019-02-14T23:42:04.336Z,23.07
2019-02-14T23:44:52.183Z,17.80
2019-02-14T23:47:37.088Z,17.70
2019-02-14T23:50:25.123Z,15.47
2019-02-14T23:53:13.203Z,22.63
2019-02-14T23:55:58.149Z,17.63
2019-02-14T23:58:43.344Z,16.47
